aviador You're here:

KCGS Decoded Metar

COLLEGE PARK in MD, USA
Report Time2017-07-21 08:08:00
UTC Time2017-07-21 08:33:45
Flight Rules vfr VFR
WindCalm
Visibility9999 m
Phenomena:N/A
Clouds:N/A
Expected CloudBase > 1,200 ft AGL from Temp-Dew spread
CeilingNone
Temp25°C (ISA +10)
Dew Point22°C (83% RH)
QNH1013 hPa
Density Alt1,565 ft
Elevation49 ft
Report Wrong Elevation
Raw Report
KCGS 210808Z AUTO 00000KT 10SM CLR 25/22 A2991 RMK AO1
T02450217=

Extra information for KCGS:More info

Metar Taf Metar & Taf Last 4 Metars F.Rules Stats Wind Profile Meteogram Temp Stats Airport Information Weather charts Add Link Nearby VenuesMetar ALERT Operation Metar Decoded Social comments

AIRNAV info for KCGS